createdAt,value
2022-09-11T00:00:45.029Z,90.28
2022-09-11T00:01:45.022Z,90.28
2022-09-11T00:02:45.026Z,90.28
2022-09-11T00:03:45.333Z,90.19
2022-09-11T00:04:44.981Z,90.28
2022-09-11T00:05:44.964Z,90.28
2022-09-11T00:06:44.962Z,90.28
2022-09-11T00:07:44.935Z,90.39
2022-09-11T00:08:44.927Z,90.39
2022-09-11T00:09:44.939Z,90.39
2022-09-11T00:10:44.905Z,90.49
2022-09-11T00:11:44.895Z,90.49
2022-09-11T00:12:44.887Z,90.49
2022-09-11T00:13:44.868Z,90.59
2022-09-11T00:14:44.861Z,90.59
2022-09-11T00:15:44.860Z,90.59
2022-09-11T00:16:44.899Z,90.69
2022-09-11T00:17:44.830Z,90.69
2022-09-11T00:18:44.832Z,90.69
2022-09-11T00:19:44.804Z,90.69
2022-09-11T00:20:44.832Z,90.73
2022-09-11T00:21:44.785Z,90.69
2022-09-11T00:22:44.783Z,90.83
2022-09-11T00:23:44.765Z,90.83
2022-09-11T00:24:44.754Z,90.83
2022-09-11T00:25:44.738Z,90.83
2022-09-11T00:26:44.745Z,90.83
2022-09-11T00:27:44.721Z,90.94
2022-09-11T00:28:44.724Z,90.94
2022-09-11T00:29:44.692Z,90.94
2022-09-11T00:30:44.690Z,90.83
2022-09-11T00:31:44.788Z,90.83
2022-09-11T00:32:44.665Z,90.83
2022-09-11T00:33:44.660Z,90.94
2022-09-11T00:34:44.663Z,90.94
2022-09-11T00:35:44.644Z,90.94
2022-09-11T00:36:44.649Z,90.94
2022-09-11T00:37:44.621Z,91.03
2022-09-11T00:38:44.610Z,91.14
2022-09-11T00:39:44.629Z,91.14
2022-09-11T00:40:44.583Z,91.24
2022-09-11T00:41:44.562Z,91.34
2022-09-11T00:42:44.563Z,91.44
2022-09-11T00:43:44.553Z,91.44
2022-09-11T00:44:44.559Z,91.54
2022-09-11T00:45:44.556Z,91.54
2022-09-11T00:46:44.520Z,91.64
2022-09-11T00:47:44.498Z,91.64
2022-09-11T00:48:44.494Z,91.69
2022-09-11T00:49:44.505Z,91.69
2022-09-11T00:50:44.468Z,91.78
2022-09-11T00:51:44.469Z,91.78
2022-09-11T00:52:44.458Z,91.78
2022-09-11T00:53:44.448Z,91.78
2022-09-11T00:54:44.454Z,91.89
2022-09-11T00:55:44.419Z,91.89
2022-09-11T00:56:44.409Z,91.89
2022-09-11T00:57:44.394Z,91.89
2022-09-11T00:58:44.391Z,91.89
2022-09-11T00:59:44.387Z,91.89
2022-09-11T01:00:44.433Z,91.99
2022-09-11T01:01:44.385Z,92.09
2022-09-11T01:02:44.347Z,92.09
2022-09-11T01:03:44.333Z,92.09
2022-09-11T01:04:44.335Z,92.19
2022-09-11T01:05:44.332Z,92.19
2022-09-11T01:06:44.320Z,92.19
2022-09-11T01:07:44.288Z,92.29
2022-09-11T01:08:44.276Z,92.29
2022-09-11T01:09:44.262Z,92.29
2022-09-11T01:10:44.267Z,92.29
2022-09-11T01:11:44.238Z,92.40
2022-09-11T01:12:44.239Z,92.40
2022-09-11T01:13:44.224Z,92.40
2022-09-11T01:14:44.219Z,92.40
2022-09-11T01:15:44.204Z,92.40
2022-09-11T01:16:44.187Z,92.29
2022-09-11T01:17:44.180Z,92.29
2022-09-11T01:18:44.170Z,92.44
2022-09-11T01:19:44.150Z,92.44
2022-09-11T01:20:44.146Z,92.54
2022-09-11T01:21:44.144Z,92.54
2022-09-11T01:22:44.143Z,92.54
2022-09-11T01:23:44.124Z,92.64
2022-09-11T01:24:44.099Z,92.64
2022-09-11T01:25:44.094Z,92.64
2022-09-11T01:26:44.095Z,92.64
2022-09-11T01:27:44.077Z,92.64
2022-09-11T01:28:44.074Z,92.64
2022-09-11T01:29:44.051Z,92.64
2022-09-11T01:30:44.037Z,92.64
2022-09-11T01:31:44.065Z,92.74
2022-09-11T01:32:44.030Z,92.64
2022-09-11T01:33:44.018Z,92.64
2022-09-11T01:34:44.013Z,92.64
2022-09-11T01:35:43.985Z,92.64
2022-09-11T01:36:43.984Z,92.64
2022-09-11T01:37:43.957Z,92.64
2022-09-11T01:38:43.952Z,92.64
2022-09-11T01:39:43.991Z,92.64
2022-09-11T01:40:43.936Z,92.64
2022-09-11T01:41:43.912Z,92.64
2022-09-11T01:42:43.905Z,92.54
2022-09-11T01:43:43.896Z,92.54
2022-09-11T01:44:43.885Z,92.54
2022-09-11T01:45:43.939Z,92.54
2022-09-11T01:46:43.864Z,92.54
2022-09-11T01:47:43.855Z,92.54
2022-09-11T01:48:43.854Z,92.64
2022-09-11T01:49:43.830Z,92.64
2022-09-11T01:50:43.848Z,92.64
2022-09-11T01:51:43.811Z,92.64
2022-09-11T01:52:43.803Z,92.64
2022-09-11T01:53:48.133Z,92.74
2022-09-11T01:54:43.778Z,92.74
2022-09-11T01:55:43.773Z,92.74
2022-09-11T01:56:43.764Z,92.74
2022-09-11T01:57:43.740Z,92.74
2022-09-11T01:58:43.736Z,92.74
2022-09-11T01:59:43.719Z,92.79
2022-09-11T02:00:43.742Z,92.79
2022-09-11T02:01:43.741Z,92.74
2022-09-11T02:02:43.691Z,92.74
2022-09-11T02:03:43.683Z,92.79
2022-09-11T02:04:43.668Z,92.79
2022-09-11T02:05:43.674Z,92.79
2022-09-11T02:06:43.645Z,92.79
2022-09-11T02:07:43.634Z,92.79
2022-09-11T02:08:43.673Z,92.88
2022-09-11T02:09:43.609Z,92.88
2022-09-11T02:10:43.611Z,92.88
2022-09-11T02:11:43.617Z,92.99
2022-09-11T02:12:43.587Z,92.88
2022-09-11T02:13:43.617Z,92.99
2022-09-11T02:14:43.560Z,92.88
2022-09-11T02:15:43.554Z,92.88
2022-09-11T02:16:43.551Z,92.79
2022-09-11T02:17:43.527Z,92.79
2022-09-11T02:18:43.513Z,92.79
2022-09-11T02:19:43.506Z,92.79
2022-09-11T02:20:43.495Z,92.79
2022-09-11T02:21:43.500Z,92.79
2022-09-11T02:22:43.500Z,92.79
2022-09-11T02:23:43.617Z,92.79
2022-09-11T02:24:43.468Z,92.79
2022-09-11T02:25:43.434Z,92.79
2022-09-11T02:26:43.463Z,92.79
2022-09-11T02:27:43.419Z,92.79
2022-09-11T02:28:43.415Z,92.88
2022-09-11T02:29:43.407Z,92.88
2022-09-11T02:30:43.390Z,92.88
2022-09-11T02:31:43.400Z,92.99
2022-09-11T02:32:43.375Z,92.99
2022-09-11T02:33:43.452Z,93.13
2022-09-11T02:34:43.353Z,93.13
2022-09-11T02:35:43.335Z,93.13
2022-09-11T02:36:43.319Z,93.33
2022-09-11T02:37:43.314Z,93.33
2022-09-11T02:38:43.308Z,93.43
2022-09-11T02:39:43.350Z,93.43
2022-09-11T02:40:43.302Z,93.54
2022-09-11T02:41:43.275Z,93.54
2022-09-11T02:42:43.259Z,93.63
2022-09-11T02:43:43.324Z,93.63
2022-09-11T02:44:43.248Z,93.63
2022-09-11T02:45:43.286Z,93.63
2022-09-11T02:46:43.214Z,93.63
2022-09-11T02:47:43.215Z,93.63
2022-09-11T02:48:43.195Z,93.78
2022-09-11T02:49:43.190Z,93.78
2022-09-11T02:50:43.173Z,93.88
2022-09-11T02:51:43.163Z,93.88
2022-09-11T02:52:43.155Z,93.88
2022-09-11T02:53:43.304Z,93.88
2022-09-11T02:54:43.125Z,93.88
2022-09-11T02:55:43.142Z,93.84
2022-09-11T02:56:43.107Z,93.99
2022-09-11T02:57:43.111Z,93.88
2022-09-11T02:58:43.077Z,93.88
2022-09-11T02:59:43.066Z,93.78
2022-09-11T03:00:43.146Z,93.78
2022-09-11T03:01:43.091Z,93.78
2022-09-11T03:02:43.041Z,93.78
2022-09-11T03:03:45.696Z,93.78
2022-09-11T03:04:43.008Z,93.78
2022-09-11T03:05:43.005Z,93.78
2022-09-11T03:06:43.000Z,93.78
2022-09-11T03:07:42.979Z,93.78
2022-09-11T03:08:42.980Z,93.78
2022-09-11T03:09:42.972Z,93.68
2022-09-11T03:10:42.952Z,93.68
2022-09-11T03:11:42.951Z,93.68
2022-09-11T03:12:42.922Z,93.68
2022-09-11T03:13:43.045Z,93.68
2022-09-11T03:14:42.904Z,93.68
2022-09-11T03:15:42.905Z,93.58
2022-09-11T03:16:42.917Z,93.58
2022-09-11T03:17:42.887Z,93.68
2022-09-11T03:18:42.864Z,93.68
2022-09-11T03:19:42.869Z,93.68
2022-09-11T03:20:42.841Z,93.68
2022-09-11T03:21:42.835Z,93.68
2022-09-11T03:22:42.812Z,93.68
2022-09-11T03:23:42.953Z,93.68
2022-09-11T03:24:42.795Z,93.78
2022-09-11T03:25:42.803Z,93.78
2022-09-11T03:26:42.767Z,93.68
2022-09-11T03:27:42.761Z,93.68
2022-09-11T03:28:42.770Z,93.68
2022-09-11T03:29:42.753Z,93.58
2022-09-11T03:30:42.735Z,93.58
2022-09-11T03:31:42.784Z,93.58
2022-09-11T03:32:42.695Z,93.58
2022-09-11T03:33:42.770Z,93.58
2022-09-11T03:34:42.681Z,93.68
2022-09-11T03:35:42.690Z,93.68
2022-09-11T03:36:42.663Z,93.68
2022-09-11T03:37:42.647Z,93.68
2022-09-11T03:38:42.634Z,93.68
2022-09-11T03:39:42.645Z,93.68
2022-09-11T03:40:42.628Z,93.73
2022-09-11T03:41:42.617Z,93.73
2022-09-11T03:42:42.613Z,93.83
2022-09-11T03:43:42.606Z,93.83
2022-09-11T03:44:42.570Z,93.83
2022-09-11T03:45:42.612Z,93.83
2022-09-11T03:46:42.555Z,93.83
2022-09-11T03:47:42.536Z,93.83
2022-09-11T03:48:42.540Z,93.73
2022-09-11T03:49:42.525Z,93.73
2022-09-11T03:50:42.504Z,93.73
2022-09-11T03:51:42.508Z,93.62
2022-09-11T03:52:42.482Z,93.62
2022-09-11T03:53:42.608Z,93.62
2022-09-11T03:54:42.451Z,93.62
2022-09-11T03:55:42.455Z,93.62
2022-09-11T03:56:42.440Z,93.62
2022-09-11T03:57:42.435Z,93.52
2022-09-11T03:58:42.436Z,93.52
2022-09-11T03:59:42.418Z,93.62
2022-09-11T04:00:42.420Z,93.62
2022-09-11T04:01:42.428Z,93.62
2022-09-11T04:02:42.365Z,93.62
2022-09-11T04:03:42.484Z,93.73
2022-09-11T04:04:42.360Z,93.73
2022-09-11T04:05:42.345Z,93.97
2022-09-11T04:06:42.324Z,94.07
2022-09-11T04:07:42.325Z,94.07
2022-09-11T04:08:42.300Z,94.18
2022-09-11T04:09:42.338Z,94.27
2022-09-11T04:10:42.282Z,94.27
2022-09-11T04:11:42.284Z,94.38
2022-09-11T04:12:42.259Z,94.48
2022-09-11T04:13:42.399Z,94.38
2022-09-11T04:14:42.239Z,94.48
2022-09-11T04:15:42.235Z,94.48
2022-09-11T04:16:42.267Z,94.48
2022-09-11T04:17:42.224Z,94.48
2022-09-11T04:18:42.204Z,94.48
2022-09-11T04:19:42.193Z,94.48
2022-09-11T04:20:42.183Z,94.62
2022-09-11T04:21:42.164Z,94.48
2022-09-11T04:22:42.153Z,94.53
2022-09-11T04:23:42.287Z,94.53
2022-09-11T04:24:42.127Z,94.53
2022-09-11T04:25:42.132Z,94.62
2022-09-11T04:26:42.123Z,94.73
2022-09-11T04:27:42.107Z,94.73
2022-09-11T04:28:42.085Z,94.83
2022-09-11T04:29:42.082Z,94.93
2022-09-11T04:30:42.115Z,94.93
2022-09-11T04:31:42.106Z,95.03
2022-09-11T04:32:42.037Z,95.13
2022-09-11T04:33:42.200Z,95.13
2022-09-11T04:34:42.037Z,95.34
2022-09-11T04:35:42.019Z,95.34
2022-09-11T04:36:42.006Z,95.54
2022-09-11T04:37:41.991Z,95.64
2022-09-11T04:38:41.977Z,95.74
2022-09-11T04:39:42.011Z,95.84
2022-09-11T04:40:41.951Z,95.84
2022-09-11T04:41:41.994Z,95.94
2022-09-11T04:42:41.938Z,96.04
2022-09-11T04:43:42.087Z,96.04
2022-09-11T04:44:41.932Z,96.15
2022-09-11T04:45:41.916Z,96.15
2022-09-11T04:46:41.886Z,96.20
2022-09-11T04:47:41.897Z,96.20
2022-09-11T04:48:41.899Z,96.20
2022-09-11T04:49:41.872Z,96.20
2022-09-11T04:50:41.872Z,96.20
2022-09-11T04:51:41.843Z,96.30
2022-09-11T04:52:41.824Z,96.30
2022-09-11T04:53:41.930Z,96.41
2022-09-11T04:54:41.804Z,96.41
2022-09-11T04:55:41.792Z,96.41
2022-09-11T04:56:41.783Z,96.51
2022-09-11T04:57:41.783Z,96.51
2022-09-11T04:58:41.779Z,96.51
2022-09-11T04:59:41.775Z,96.51
2022-09-11T05:00:41.800Z,96.51
2022-09-11T05:01:41.731Z,96.51
2022-09-11T05:02:41.715Z,96.51
2022-09-11T05:03:41.763Z,96.61
2022-09-11T05:04:41.712Z,96.61
2022-09-11T05:05:41.699Z,96.61
2022-09-11T05:06:41.679Z,96.71
2022-09-11T05:07:41.698Z,96.61
2022-09-11T05:08:41.661Z,96.61
2022-09-11T05:09:41.662Z,96.61
2022-09-11T05:10:41.673Z,96.61
2022-09-11T05:11:41.639Z,96.61
2022-09-11T05:12:41.616Z,96.51
2022-09-11T05:13:41.681Z,96.61
2022-09-11T05:14:41.589Z,96.61
2022-09-11T05:15:41.596Z,96.61
2022-09-11T05:16:41.602Z,96.51
2022-09-11T05:17:41.566Z,96.51
2022-09-11T05:18:41.556Z,96.51
2022-09-11T05:19:41.545Z,96.51
2022-09-11T05:20:41.546Z,96.61
2022-09-11T05:21:41.516Z,96.61
2022-09-11T05:22:41.500Z,96.46
2022-09-11T05:23:41.601Z,96.46
2022-09-11T05:24:41.493Z,96.46
2022-09-11T05:25:41.502Z,96.46
2022-09-11T05:26:41.465Z,96.36
2022-09-11T05:27:41.555Z,96.26
2022-09-11T05:28:41.443Z,96.26
2022-09-11T05:29:41.503Z,96.26
2022-09-11T05:30:41.454Z,96.26
2022-09-11T05:31:41.466Z,96.26
2022-09-11T05:32:41.413Z,96.15
2022-09-11T05:33:41.477Z,96.15
2022-09-11T05:34:41.379Z,96.06
2022-09-11T05:35:41.377Z,96.06
2022-09-11T05:36:41.352Z,96.06
2022-09-11T05:37:41.367Z,96.06
2022-09-11T05:38:41.331Z,96.06
2022-09-11T05:39:41.334Z,96.06
2022-09-11T05:40:41.314Z,96.01
2022-09-11T05:41:41.304Z,95.91
2022-09-11T05:42:41.300Z,95.91
2022-09-11T05:43:41.417Z,95.91
2022-09-11T05:44:41.269Z,95.81
2022-09-11T05:45:41.288Z,95.81
2022-09-11T05:46:41.246Z,95.71
2022-09-11T05:47:41.254Z,95.71
2022-09-11T05:48:41.219Z,95.61
2022-09-11T05:49:41.217Z,95.61
2022-09-11T05:50:41.201Z,95.50
2022-09-11T05:51:41.190Z,95.40
2022-09-11T05:52:41.174Z,95.40
2022-09-11T05:53:41.274Z,95.30
2022-09-11T05:54:41.181Z,95.40
2022-09-11T05:55:41.160Z,95.40
2022-09-11T05:56:41.129Z,95.40
2022-09-11T05:57:41.121Z,95.40
2022-09-11T05:58:41.113Z,95.40
2022-09-11T05:59:41.103Z,95.40
2022-09-11T06:00:41.093Z,95.40
2022-09-11T06:01:41.084Z,95.40
2022-09-11T06:02:41.085Z,95.40
2022-09-11T06:03:41.235Z,95.50
2022-09-11T06:04:41.039Z,95.50
2022-09-11T06:05:41.031Z,95.50
2022-09-11T06:06:41.178Z,95.40
2022-09-11T06:07:41.019Z,95.40
2022-09-11T06:08:40.998Z,95.40
2022-09-11T06:09:40.989Z,95.40
2022-09-11T06:10:41.001Z,95.30
2022-09-11T06:11:40.969Z,95.30
2022-09-11T06:12:40.961Z,95.30
2022-09-11T06:13:41.020Z,95.20
2022-09-11T06:14:40.945Z,95.30
2022-09-11T06:15:46.747Z,95.30
2022-09-11T06:16:41.064Z,95.30
2022-09-11T06:17:40.912Z,95.30
2022-09-11T06:18:40.892Z,95.40
2022-09-11T06:19:40.897Z,95.40
2022-09-11T06:20:40.875Z,95.50
2022-09-11T06:21:40.876Z,95.50
2022-09-11T06:22:40.852Z,95.46
2022-09-11T06:23:40.903Z,95.46
2022-09-11T06:24:40.866Z,95.36
2022-09-11T06:25:40.821Z,95.36
2022-09-11T06:26:40.810Z,95.36
2022-09-11T06:27:40.807Z,95.36
2022-09-11T06:28:40.781Z,95.36
2022-09-11T06:29:40.796Z,95.36
2022-09-11T06:30:40.885Z,95.26
2022-09-11T06:31:40.751Z,95.26
2022-09-11T06:32:40.735Z,95.26
2022-09-11T06:33:40.810Z,95.26
2022-09-11T06:34:40.743Z,95.15
2022-09-11T06:35:40.728Z,95.15
2022-09-11T06:36:40.694Z,95.15
2022-09-11T06:37:40.685Z,94.85
2022-09-11T06:38:40.667Z,94.75
2022-09-11T06:39:40.684Z,94.71
2022-09-11T06:40:40.657Z,94.65
2022-09-11T06:41:40.648Z,94.60
2022-09-11T06:42:40.633Z,94.60
2022-09-11T06:43:40.646Z,94.71
2022-09-11T06:44:40.598Z,94.60
2022-09-11T06:45:40.685Z,94.60
2022-09-11T06:46:40.587Z,94.50
2022-09-11T06:47:40.586Z,94.50
2022-09-11T06:48:40.569Z,94.40
2022-09-11T06:49:40.550Z,94.20
2022-09-11T06:50:40.554Z,94.06
2022-09-11T06:51:40.554Z,93.95
2022-09-11T06:52:40.583Z,93.75
2022-09-11T06:53:40.557Z,93.55
2022-09-11T06:54:40.529Z,93.65
2022-09-11T06:55:40.494Z,93.55
2022-09-11T06:56:40.488Z,93.55
2022-09-11T06:57:42.050Z,93.55
2022-09-11T06:58:40.453Z,93.35
2022-09-11T06:59:40.440Z,93.35
2022-09-11T07:00:40.441Z,93.24
2022-09-11T07:01:40.632Z,93.35
2022-09-11T07:02:40.434Z,93.15
2022-09-11T07:03:40.442Z,93.04
2022-09-11T07:04:40.399Z,93.04
2022-09-11T07:05:40.416Z,93.04
2022-09-11T07:06:40.360Z,93.04
2022-09-11T07:07:40.420Z,93.15
2022-09-11T07:08:40.350Z,93.04
2022-09-11T07:09:40.351Z,93.04
2022-09-11T07:10:40.347Z,92.94
2022-09-11T07:11:40.310Z,92.84
2022-09-11T07:12:40.361Z,92.84
2022-09-11T07:13:40.335Z,92.84
2022-09-11T07:14:40.286Z,92.84
2022-09-11T07:15:40.285Z,92.69
2022-09-11T07:16:40.299Z,92.80
2022-09-11T07:17:40.247Z,92.60
2022-09-11T07:18:40.238Z,92.40
2022-09-11T07:19:40.294Z,92.29
2022-09-11T07:20:40.231Z,92.19
2022-09-11T07:21:40.231Z,92.09
2022-09-11T07:22:40.196Z,91.99
2022-09-11T07:23:40.187Z,91.89
2022-09-11T07:24:40.168Z,91.78
2022-09-11T07:25:40.172Z,91.69
2022-09-11T07:26:40.166Z,91.58
2022-09-11T07:27:40.158Z,91.49
2022-09-11T07:28:40.126Z,91.28
2022-09-11T07:29:40.126Z,91.08
2022-09-11T07:30:40.150Z,91.08
2022-09-11T07:31:40.099Z,90.98
2022-09-11T07:32:40.094Z,90.88
2022-09-11T07:33:40.090Z,90.53
2022-09-11T07:34:40.100Z,90.53
2022-09-11T07:35:40.057Z,90.63
2022-09-11T07:36:40.037Z,90.43
2022-09-11T07:37:40.048Z,90.12
2022-09-11T07:38:40.018Z,90.12
2022-09-11T07:39:40.042Z,90.23
2022-09-11T07:40:39.991Z,90.23
2022-09-11T07:41:39.988Z,90.03
2022-09-11T07:42:39.988Z,89.92
2022-09-11T07:43:39.967Z,89.83
2022-09-11T07:44:39.974Z,89.83
2022-09-11T07:45:39.975Z,89.83
2022-09-11T07:46:39.935Z,89.83
2022-09-11T07:47:39.935Z,89.62
2022-09-11T07:48:39.991Z,89.48
2022-09-11T07:49:39.924Z,89.48
2022-09-11T07:50:39.891Z,89.37
2022-09-11T07:51:39.883Z,89.37
2022-09-11T07:52:39.863Z,89.28
2022-09-11T07:53:39.956Z,89.07
2022-09-11T07:54:39.861Z,88.67
2022-09-11T07:55:39.848Z,88.53
2022-09-11T07:56:39.828Z,88.23
2022-09-11T07:57:39.823Z,88.43
2022-09-11T07:58:39.828Z,88.32
2022-09-11T07:59:39.820Z,88.32
2022-09-11T08:00:39.817Z,87.98
2022-09-11T08:01:39.833Z,87.88
2022-09-11T08:02:39.807Z,87.48
2022-09-11T08:03:39.829Z,87.07
2022-09-11T08:04:39.775Z,86.77
2022-09-11T08:05:39.736Z,86.97
2022-09-11T08:06:39.739Z,87.18
2022-09-11T08:07:39.714Z,87.18
2022-09-11T08:08:39.695Z,86.97
2022-09-11T08:09:39.681Z,86.97
2022-09-11T08:10:39.680Z,86.97
2022-09-11T08:11:39.686Z,87.13
2022-09-11T08:12:39.657Z,87.03
2022-09-11T08:13:39.728Z,86.53
2022-09-11T08:14:39.627Z,86.43
2022-09-11T08:15:39.623Z,86.43
2022-09-11T08:16:39.680Z,86.33
2022-09-11T08:17:39.609Z,86.13
2022-09-11T08:18:39.595Z,85.98
2022-09-11T08:19:39.582Z,85.88
2022-09-11T08:20:39.570Z,85.88
2022-09-11T08:21:39.556Z,86.08
2022-09-11T08:22:39.559Z,86.08
2022-09-11T08:23:39.595Z,86.08
2022-09-11T08:24:39.622Z,85.88
2022-09-11T08:25:39.521Z,85.78
2022-09-11T08:26:39.629Z,85.68
2022-09-11T08:27:39.498Z,85.78
2022-09-11T08:28:39.482Z,85.68
2022-09-11T08:29:39.466Z,85.78
2022-09-11T08:30:39.461Z,85.88
2022-09-11T08:31:39.444Z,85.98
2022-09-11T08:32:39.445Z,85.88
2022-09-11T08:33:39.460Z,85.38
2022-09-11T08:34:39.423Z,85.08
2022-09-11T08:35:39.416Z,85.08
2022-09-11T08:36:39.389Z,84.94
2022-09-11T08:37:39.398Z,84.74
2022-09-11T08:38:39.364Z,84.94
2022-09-11T08:39:39.398Z,84.63
2022-09-11T08:40:39.362Z,84.63
2022-09-11T08:41:39.416Z,84.63
2022-09-11T08:42:39.361Z,84.63
2022-09-11T08:43:39.420Z,84.53
2022-09-11T08:44:39.376Z,84.43
2022-09-11T08:45:39.361Z,84.13
2022-09-11T08:46:39.279Z,84.13
2022-09-11T08:47:39.279Z,83.89
2022-09-11T08:48:39.291Z,83.69
2022-09-11T08:49:39.315Z,83.69
2022-09-11T08:50:39.264Z,83.79
2022-09-11T08:51:39.302Z,83.89
2022-09-11T08:52:39.215Z,84.09
2022-09-11T08:53:39.277Z,83.89
2022-09-11T08:54:39.200Z,83.59
2022-09-11T08:55:39.200Z,83.48
2022-09-11T08:56:39.183Z,83.39
2022-09-11T08:57:39.183Z,83.39
2022-09-11T08:58:39.207Z,83.39
2022-09-11T08:59:39.164Z,83.18
2022-09-11T09:00:39.139Z,82.88
2022-09-11T09:01:39.187Z,82.98
2022-09-11T09:02:39.114Z,82.88
2022-09-11T09:03:39.126Z,82.48
2022-09-11T09:04:39.109Z,82.48
2022-09-11T09:05:39.086Z,82.38
2022-09-11T09:06:39.103Z,82.38
2022-09-11T09:07:39.057Z,82.48
2022-09-11T09:08:39.036Z,82.68
2022-09-11T09:09:39.040Z,82.68
2022-09-11T09:10:39.026Z,82.78
2022-09-11T09:11:39.014Z,82.78
2022-09-11T09:12:39.019Z,82.68
2022-09-11T09:13:38.993Z,82.64
2022-09-11T09:14:38.977Z,82.14
2022-09-11T09:15:39.099Z,82.24
2022-09-11T09:16:38.977Z,82.14
2022-09-11T09:17:38.973Z,82.14
2022-09-11T09:18:38.963Z,81.93
2022-09-11T09:19:38.945Z,82.14
2022-09-11T09:20:38.920Z,82.24
2022-09-11T09:21:38.907Z,82.24
2022-09-11T09:22:38.927Z,82.34
2022-09-11T09:23:38.894Z,82.34
2022-09-11T09:24:38.872Z,82.10
2022-09-11T09:25:38.874Z,82.10
2022-09-11T09:26:38.887Z,81.99
2022-09-11T09:27:38.841Z,81.79
2022-09-11T09:28:38.844Z,81.79
2022-09-11T09:29:38.814Z,81.39
2022-09-11T09:30:38.797Z,80.79
2022-09-11T09:31:38.802Z,80.39
2022-09-11T09:32:38.794Z,80.39
2022-09-11T09:33:38.820Z,80.49
2022-09-11T09:34:38.775Z,80.39
2022-09-11T09:35:38.773Z,80.45
2022-09-11T09:36:38.737Z,80.49
2022-09-11T09:37:38.731Z,80.45
2022-09-11T09:38:38.723Z,80.25
2022-09-11T09:39:38.821Z,80.15
2022-09-11T09:40:38.701Z,79.94
2022-09-11T09:41:38.691Z,79.94
2022-09-11T09:42:38.697Z,80.05
2022-09-11T09:43:38.693Z,80.25
2022-09-11T09:44:38.726Z,80.25
2022-09-11T09:45:38.690Z,80.25
2022-09-11T09:46:38.627Z,80.05
2022-09-11T09:47:38.627Z,80.15
2022-09-11T09:48:38.614Z,79.94
2022-09-11T09:49:38.622Z,79.74
2022-09-11T09:50:38.664Z,79.74
2022-09-11T09:51:38.584Z,79.50
2022-09-11T09:52:38.566Z,79.41
2022-09-11T09:53:38.556Z,79.21
2022-09-11T09:54:38.603Z,78.70
2022-09-11T09:55:38.559Z,78.70
2022-09-11T09:56:38.536Z,78.40
2022-09-11T09:57:38.517Z,78.40
2022-09-11T09:58:38.510Z,78.06
2022-09-11T09:59:38.495Z,77.76
2022-09-11T10:00:38.501Z,77.56
2022-09-11T10:01:38.506Z,77.66
2022-09-11T10:02:38.532Z,77.66
2022-09-11T10:03:38.456Z,77.66
2022-09-11T10:04:38.431Z,77.86
2022-09-11T10:05:38.435Z,77.86
2022-09-11T10:06:38.410Z,77.66
2022-09-11T10:07:38.418Z,77.76
2022-09-11T10:08:38.399Z,77.86
2022-09-11T10:09:38.385Z,77.56
2022-09-11T10:10:38.379Z,77.46
2022-09-11T10:11:38.361Z,77.56
2022-09-11T10:12:38.353Z,77.36
2022-09-11T10:13:38.360Z,77.36
2022-09-11T10:14:53.658Z,76.96
2022-09-11T10:15:38.406Z,76.86
2022-09-11T10:16:38.343Z,77.00
2022-09-11T10:17:38.304Z,76.79
2022-09-11T10:18:38.294Z,77.09
2022-09-11T10:19:38.268Z,77.20
2022-09-11T10:20:38.257Z,77.39
2022-09-11T10:21:38.256Z,77.50
2022-09-11T10:22:38.244Z,77.36
2022-09-11T10:23:38.243Z,76.65
2022-09-11T10:24:38.222Z,76.45
2022-09-11T10:25:38.264Z,76.56
2022-09-11T10:26:38.245Z,76.65
2022-09-11T10:27:38.212Z,76.76
2022-09-11T10:28:38.176Z,76.86
2022-09-11T10:29:38.174Z,76.86
2022-09-11T10:30:38.164Z,76.96
2022-09-11T10:31:38.163Z,76.65
2022-09-11T10:32:38.148Z,76.76
2022-09-11T10:33:38.112Z,76.82
2022-09-11T10:34:38.126Z,77.02
2022-09-11T10:35:38.109Z,76.72
2022-09-11T10:36:38.082Z,76.82
2022-09-11T10:37:38.102Z,76.72
2022-09-11T10:38:41.359Z,76.72
2022-09-11T10:39:38.105Z,76.68
2022-09-11T10:40:38.043Z,76.78
2022-09-11T10:41:38.038Z,76.38
2022-09-11T10:42:38.055Z,76.08
2022-09-11T10:43:38.046Z,75.68
2022-09-11T10:44:37.995Z,75.24
2022-09-11T10:45:38.089Z,74.44
2022-09-11T10:46:40.973Z,74.54
2022-09-11T10:47:37.982Z,73.74
2022-09-11T10:48:37.954Z,73.94
2022-09-11T10:49:37.944Z,74.24
2022-09-11T10:50:37.930Z,74.44
2022-09-11T10:51:37.916Z,74.44
2022-09-11T10:52:37.938Z,74.20
2022-09-11T10:53:37.904Z,74.10
2022-09-11T10:54:37.889Z,73.90
2022-09-11T10:55:37.882Z,72.70
2022-09-11T10:56:37.974Z,72.50
2022-09-11T10:57:37.868Z,72.56
2022-09-11T10:58:37.858Z,72.27
2022-09-11T10:59:37.834Z,71.96
2022-09-11T11:00:37.826Z,72.27
2022-09-11T11:01:37.932Z,72.27
2022-09-11T11:02:37.806Z,72.27
2022-09-11T11:03:37.813Z,72.03
2022-09-11T11:04:37.850Z,71.73
2022-09-11T11:05:37.806Z,71.63
2022-09-11T11:06:37.776Z,71.46
2022-09-11T11:07:37.745Z,71.56
2022-09-11T11:08:37.744Z,71.96
2022-09-11T11:09:37.757Z,72.27
2022-09-11T11:10:37.719Z,72.70
2022-09-11T11:11:37.710Z,72.90
2022-09-11T11:12:37.735Z,73.10
2022-09-11T11:13:37.719Z,73.20
2022-09-11T11:14:37.688Z,73.30
2022-09-11T11:15:37.717Z,73.50
2022-09-11T11:16:37.664Z,73.80
2022-09-11T11:17:37.647Z,74.34
2022-09-11T11:18:37.677Z,74.74
2022-09-11T11:19:37.632Z,75.74
2022-09-11T11:20:37.638Z,76.25
2022-09-11T11:21:37.624Z,76.54
2022-09-11T11:22:37.605Z,77.09
2022-09-11T11:23:37.583Z,76.98
2022-09-11T11:24:37.588Z,77.28
2022-09-11T11:25:37.569Z,77.59
2022-09-11T11:26:37.568Z,77.69
2022-09-11T11:27:37.544Z,77.99
2022-09-11T11:28:37.536Z,78.99
2022-09-11T11:29:37.545Z,79.49
2022-09-11T11:30:37.646Z,78.39
2022-09-11T11:31:40.337Z,78.49
2022-09-11T11:32:37.517Z,78.15
2022-09-11T11:33:37.512Z,77.81
2022-09-11T11:34:37.501Z,77.51
2022-09-11T11:35:37.462Z,77.41
2022-09-11T11:36:37.622Z,77.72
2022-09-11T11:37:37.517Z,78.38
2022-09-11T11:38:38.033Z,78.08
2022-09-11T11:39:37.482Z,77.08
2022-09-11T11:40:37.426Z,75.87
2022-09-11T11:41:37.408Z,75.87
2022-09-11T11:42:37.386Z,75.07
2022-09-11T11:43:37.389Z,75.41
2022-09-11T11:44:37.399Z,75.60
2022-09-11T11:45:37.428Z,75.71
2022-09-11T11:46:37.329Z,75.81
2022-09-11T11:47:37.336Z,75.41
2022-09-11T11:48:37.364Z,75.51
2022-09-11T11:49:37.315Z,76.11
2022-09-11T11:50:37.315Z,76.31
2022-09-11T11:51:37.285Z,76.41
2022-09-11T11:52:37.279Z,75.71
2022-09-11T11:53:37.270Z,75.71
2022-09-11T11:54:37.251Z,75.91
2022-09-11T11:55:37.557Z,76.01
2022-09-11T11:56:37.243Z,75.31
2022-09-11T11:57:37.224Z,75.37
2022-09-11T11:58:37.304Z,75.13
2022-09-11T11:59:38.148Z,73.80
2022-09-11T12:00:37.574Z,73.50
2022-09-11T12:01:37.252Z,73.30
2022-09-11T12:02:37.167Z,73.19
2022-09-11T12:03:37.219Z,73.00
2022-09-11T12:04:37.156Z,72.39
2022-09-11T12:05:37.137Z,72.39
2022-09-11T12:06:37.143Z,72.50
2022-09-11T12:07:37.103Z,72.39
2022-09-11T12:08:37.995Z,72.39
2022-09-11T12:09:37.089Z,72.39
2022-09-11T12:10:37.098Z,72.69
2022-09-11T12:11:37.572Z,72.80
2022-09-11T12:12:37.058Z,72.80
2022-09-11T12:13:37.062Z,72.09
2022-09-11T12:14:37.056Z,71.50
2022-09-11T12:15:37.192Z,71.00
2022-09-11T12:16:37.089Z,70.69
2022-09-11T12:17:37.048Z,70.50
2022-09-11T12:18:37.037Z,70.69
2022-09-11T12:19:37.002Z,70.69
2022-09-11T12:20:36.965Z,69.69
2022-09-11T12:21:36.957Z,69.69
2022-09-11T12:22:36.940Z,69.66
2022-09-11T12:23:36.945Z,69.56
2022-09-11T12:24:36.946Z,69.16
2022-09-11T12:25:36.956Z,68.46
2022-09-11T12:26:36.918Z,68.55
2022-09-11T12:27:36.889Z,69.06
2022-09-11T12:28:36.884Z,68.86
2022-09-11T12:29:36.890Z,68.76
2022-09-11T12:30:36.878Z,68.96
2022-09-11T12:31:36.888Z,69.06
2022-09-11T12:32:36.883Z,69.16
2022-09-11T12:33:36.826Z,69.66
2022-09-11T12:34:36.817Z,69.96
2022-09-11T12:35:36.857Z,69.36
2022-09-11T12:36:36.805Z,69.26
2022-09-11T12:37:36.812Z,69.39
2022-09-11T12:38:36.839Z,68.79
2022-09-11T12:39:36.791Z,69.09
2022-09-11T12:40:36.781Z,69.29
2022-09-11T12:41:36.737Z,69.39
2022-09-11T12:42:36.959Z,69.59
2022-09-11T12:43:36.718Z,68.99
2022-09-11T12:44:36.715Z,68.62
2022-09-11T12:45:36.797Z,68.73
2022-09-11T12:46:36.704Z,68.73
2022-09-11T12:47:36.719Z,69.02
2022-09-11T12:48:36.665Z,69.02
2022-09-11T12:49:36.720Z,69.32
2022-09-11T12:50:36.652Z,69.42
2022-09-11T12:51:36.623Z,69.53
2022-09-11T12:52:36.669Z,69.73